Time;durP1;ratioP1;P1;durP2;ratioP2;P2;SDS_P1;SDS_P2;PMS_P1;PMS_P2;Temp;Humidity;BMP_temperature;BMP_pressure;BME280_temperature;BME280_humidity;BME280_pressure;Samples;Min_cycle;Max_cycle;Signal;HPM_P1;HPM_P2
2023/07/28 08:01:35;;;;;;;4.35;1.35;;;;;;;25.14;42.43;99493.09;1722458;83;21103;-65
2023/07/28 08:04:07;;;;;;;2.95;1.45;;;;;;;25.17;42.81;99489.66;1723358;82;21061;-65
2023/07/28 08:06:37;;;;;;;5.58;1.67;;;;;;;25.26;43.31;99488.33;1683888;85;21047;-65
2023/07/28 08:09:07;;;;;;;5.12;1.60;;;;;;;25.38;42.96;99495.63;1715519;84;21092;-64
2023/07/28 08:11:37;;;;;;;5.37;1.57;;;;;;;25.41;42.77;99499.20;1715652;82;21045;-66
2023/07/28 08:14:07;;;;;;;4.33;1.52;;;;;;;25.50;42.08;99504.30;1715673;83;21025;-65
2023/07/28 08:16:35;;;;;;;3.00;1.30;;;;;;;25.60;42.17;99492.83;1715434;82;21088;-64
2023/07/28 08:19:04;;;;;;;2.83;1.67;;;;;;;25.74;40.83;99496.99;1680888;85;21505;-66
2023/07/28 08:21:36;;;;;;;2.87;1.35;;;;;;;25.63;41.25;99504.56;1680108;84;21038;-65
2023/07/28 08:24:05;;;;;;;2.95;1.37;;;;;;;25.66;41.18;99501.14;1678692;85;21056;-67
2023/07/28 08:26:34;;;;;;;3.00;1.42;;;;;;;25.76;41.67;99505.09;1679344;85;21122;-65
2023/07/28 08:29:04;;;;;;;4.45;1.80;;;;;;;25.94;40.72;99499.84;1668655;85;21026;-66
2023/07/28 08:31:35;;;;;;;3.25;1.60;;;;;;;25.94;40.72;99499.84;1682046;85;21129;-66
2023/07/28 08:34:04;;;;;;;1.35;1.20;;;;;;;26.05;41.03;99499.84;1683906;85;21048;-63
2023/07/28 08:36:33;;;;;;;3.98;1.67;;;;;;;26.28;38.79;99501.19;1683826;85;21052;-65
2023/07/28 08:39:03;;;;;;;4.40;1.50;;;;;;;26.28;38.79;99501.19;1683791;85;21588;-64
2023/07/28 08:41:33;;;;;;;3.60;1.15;;;;;;;26.20;39.47;99505.05;1664963;85;21532;-65
2023/07/28 08:44:05;;;;;;;1.62;1.20;;;;;;;26.06;38.51;99509.92;1683853;85;21063;-67
2023/07/28 08:46:35;;;;;;;2.10;1.30;;;;;;;25.57;39.92;99510.30;1687425;85;21063;-64
2023/07/28 08:49:04;;;;;;;2.12;1.40;;;;;;;25.57;39.92;99510.30;1683945;85;21047;-63
2023/07/28 08:51:33;;;;;;;3.02;1.40;;;;;;;25.52;40.60;99513.23;1683881;85;21365;-65
2023/07/28 08:54:03;;;;;;;3.55;1.42;;;;;;;25.55;40.75;99521.02;1683822;85;21047;-64
2023/07/28 08:56:32;;;;;;;4.75;1.70;;;;;;;25.65;40.02;99515.72;1682393;85;21571;-66
2023/07/28 08:59:01;;;;;;;2.60;2.00;;;;;;;25.79;39.27;99520.72;1719482;82;21041;-65
2023/07/28 09:01:31;;;;;;;3.25;1.67;;;;;;;25.85;38.95;99525.62;1696925;84;21099;-63
2023/07/28 09:04:00;;;;;;;2.42;1.47;;;;;;;25.81;39.00;99528.23;1740277;81;21100;-64
2023/07/28 09:06:31;;;;;;;2.70;1.25;;;;;;;25.90;39.60;99526.89;1740429;82;21432;-64
2023/07/28 09:09:01;;;;;;;2.45;1.40;;;;;;;26.02;38.67;99523.53;1740473;82;21219;-66
2023/07/28 09:11:31;;;;;;;3.30;1.60;;;;;;;26.05;38.67;99530.73;1740255;82;21483;-66
2023/07/28 09:14:00;;;;;;;5.47;1.62;;;;;;;25.83;38.91;99530.73;1740456;82;21196;-64
2023/07/28 09:16:29;;;;;;;3.60;1.50;;;;;;;25.54;38.94;99536.19;1702539;84;21035;-65
2023/07/28 09:19:07;;;;;;;4.53;2.10;;;;;;;25.54;38.94;99536.19;1740370;82;21049;-66
2023/07/28 09:21:37;;;;;;;1.72;1.20;;;;;;;25.35;39.33;99525.69;1676982;84;21083;-64
2023/07/28 09:24:10;;;;;;;3.77;2.30;;;;;;;25.07;38.65;99531.95;1740314;82;21100;-66
2023/07/28 09:26:47;;;;;;;2.25;1.30;;;;;;;24.72;39.77;99532.12;1740333;82;21033;-66
2023/07/28 09:29:20;;;;;;;2.72;1.32;;;;;;;24.68;40.95;99531.06;1702628;84;21071;-69
2023/07/28 09:31:51;;;;;;;4.62;1.30;;;;;;;24.70;41.89;99532.97;1711572;83;21049;-64
2023/07/28 09:34:28;;;;;;;3.58;1.32;;;;;;;24.66;40.63;99530.54;1679539;85;21087;-61
2023/07/28 09:36:58;;;;;;;3.05;1.40;;;;;;;24.60;40.97;99545.80;1593906;90;21099;-65
2023/07/28 09:39:28;;;;;;;2.00;1.37;;;;;;;24.48;40.74;99537.08;1593958;89;21198;-65
2023/07/28 09:41:59;;;;;;;2.45;1.50;;;;;;;24.42;40.74;99531.32;1622982;88;21099;-64
2023/07/28 09:44:28;;;;;;;2.22;1.20;;;;;;;24.48;41.30;99544.08;1622863;88;21209;-65
2023/07/28 09:46:57;;;;;;;4.28;1.15;;;;;;;24.60;40.38;99539.62;1622773;88;21118;-63
2023/07/28 09:49:34;;;;;;;6.08;1.60;;;;;;;24.59;40.29;99542.73;1622641;88;21075;-66
2023/07/28 09:52:05;;;;;;;;;;;;;;;24.55;40.11;99540.30;1625196;88;21119;-64
2023/07/28 09:54:38;;;;;;;4.92;1.35;;;;;;;24.50;40.37;99552.43;1647444;84;20188;-65
2023/07/28 09:57:13;;;;;;;4.87;1.55;;;;;;;24.43;40.21;99553.41;1679571;85;21079;-64
2023/07/28 09:59:43;;;;;;;3.40;1.75;;;;;;;24.33;41.72;99553.61;1679540;85;21105;-64
2023/07/28 10:02:12;;;;;;;2.52;1.35;;;;;;;24.26;40.28;99559.59;1679716;85;21056;-66
2023/07/28 10:04:41;;;;;;;5.10;1.37;;;;;;;24.23;39.61;99543.41;1679624;85;21575;-66
2023/07/28 10:07:10;;;;;;;3.35;1.55;;;;;;;24.26;39.88;99553.16;1679382;85;21059;-63
2023/07/28 10:09:39;;;;;;;2.05;1.35;;;;;;;24.25;38.88;99542.53;1679497;85;21553;-66
2023/07/28 10:12:27;;;;;;;3.15;1.22;;;;;;;24.21;38.36;99538.69;1679522;85;21055;-65
2023/07/28 10:15:03;;;;;;;5.28;1.25;;;;;;;24.22;38.29;99524.12;1679474;85;21179;-66
2023/07/28 10:17:35;;;;;;;4.12;1.20;;;;;;;24.21;37.72;99532.25;1680673;85;22051;-64
2023/07/28 10:20:30;;;;;;;2.70;1.20;;;;;;;24.22;37.91;99529.15;1679512;85;21083;-65
2023/07/28 10:23:14;;;;;;;6.78;1.75;;;;;;;24.27;37.17;99533.85;1679564;85;21023;-65
2023/07/28 10:25:44;;;;;;;2.47;1.30;;;;;;;24.21;37.09;99541.48;1679525;85;21071;-64
2023/07/28 10:31:30;;;;;;;4.40;1.30;;;;;;;24.18;35.99;99542.11;1608446;88;21089;-65
2023/07/28 10:34:00;;;;;;;3.45;1.40;;;;;;;24.09;35.78;99531.36;1589171;89;21051;-65
2023/07/28 10:36:38;;;;;;;2.65;1.27;;;;;;;24.09;35.21;99525.77;1602752;88;21041;-66
2023/07/28 10:39:19;;;;;;;2.83;1.47;;;;;;;24.13;35.10;99521.77;1609469;88;21025;-65
2023/07/28 10:42:08;;;;;;;2.60;1.12;;;;;;;24.12;35.25;99522.91;1610031;89;21065;-66
2023/07/28 10:44:37;;;;;;;2.75;1.50;;;;;;;24.15;34.99;99512.50;1609554;89;21113;-65
2023/07/28 10:47:12;;;;;;;1.82;1.17;;;;;;;24.18;35.40;99518.31;1558204;91;21563;-66
2023/07/28 10:49:44;;;;;;;7.58;2.50;;;;;;;24.22;34.62;99522.15;1586228;89;21086;-65
2023/07/28 10:52:13;;;;;;;2.02;1.20;;;;;;;24.25;34.37;99517.33;1563945;90;21090;-67
2023/07/28 10:54:43;;;;;;;2.40;1.30;;;;;;;24.27;34.29;99515.08;1612664;87;21062;-66
2023/07/28 10:57:13;;;;;;;3.00;1.50;;;;;;;24.26;33.90;99510.59;1632220;88;21050;-67
2023/07/28 10:59:41;;;;;;;3.27;1.45;;;;;;;24.23;34.03;99507.02;1632216;88;21490;-66
2023/07/28 11:02:17;;;;;;;3.75;1.30;;;;;;;24.27;34.28;99512.28;1632317;88;21240;-65
2023/07/28 11:04:47;;;;;;;2.90;1.40;;;;;;;24.30;34.50;99518.66;1632434;88;21047;-65
2023/07/28 11:07:15;;;;;;;2.87;1.72;;;;;;;24.35;34.11;99516.33;1632199;88;21110;-66
2023/07/28 11:09:44;;;;;;;2.87;1.60;;;;;;;24.34;34.58;99516.91;1632004;88;21046;-66
2023/07/28 11:12:13;;;;;;;1.60;0.90;;;;;;;24.41;34.68;99522.66;1632101;88;21528;-65
2023/07/28 11:14:42;;;;;;;2.85;1.32;;;;;;;24.41;34.16;99532.46;1621659;88;21066;-64
2023/07/28 11:17:10;;;;;;;2.55;1.15;;;;;;;24.33;33.89;99524.21;1621375;88;21093;-65
2023/07/28 11:19:40;;;;;;;3.25;1.10;;;;;;;24.28;34.31;99522.34;1632283;88;21058;-66
2023/07/28 11:22:09;;;;;;;3.25;1.10;;;;;;;24.29;34.94;99515.60;1632280;88;21059;-65
2023/07/28 11:24:39;;;;;;;4.03;1.30;;;;;;;24.34;35.25;99514.10;1632034;88;21086;-64
2023/07/28 11:27:08;;;;;;;2.40;1.40;;;;;;;24.37;35.39;99518.25;1632283;88;21102;-65
2023/07/28 11:29:37;;;;;;;3.42;1.15;;;;;;;24.34;34.94;99521.10;1634923;87;21087;-65
2023/07/28 11:32:07;;;;;;;3.10;1.20;;;;;;;24.24;35.79;99526.04;1611895;88;21579;-65
2023/07/28 11:34:36;;;;;;;2.67;1.30;;;;;;;24.12;35.72;99520.94;1652736;87;21090;-64
2023/07/28 11:37:08;;;;;;;2.92;1.37;;;;;;;24.04;36.43;99520.23;1628843;87;21102;-65
2023/07/28 11:39:36;;;;;;;1.87;1.07;;;;;;;24.02;36.63;99528.09;1652639;87;21109;-64
2023/07/28 11:42:05;;;;;;;2.40;1.07;;;;;;;23.96;36.60;99517.57;1612003;89;21086;-65
2023/07/28 11:44:34;;;;;;;4.67;1.20;;;;;;;23.88;36.87;99517.45;1652719;87;21046;-66
2023/07/28 11:47:05;;;;;;;1.98;1.02;;;;;;;23.90;37.60;99536.16;1611847;88;21070;-66
2023/07/28 11:49:38;;;;;;;5.35;1.12;;;;;;;23.97;36.45;99528.19;1652801;87;21101;-64
2023/07/28 11:52:07;;;;;;;2.83;1.07;;;;;;;24.00;36.90;99531.20;1608629;87;21050;-65
2023/07/28 11:54:36;;;;;;;4.92;1.37;;;;;;;24.14;36.71;99533.23;1594250;89;21116;-65
2023/07/28 11:57:07;;;;;;;1.72;0.90;;;;;;;24.24;36.18;99537.23;1652930;87;21030;-65
2023/07/28 11:59:36;;;;;;;4.37;1.17;;;;;;;24.26;35.82;99530.76;1627216;87;21126;-73
2023/07/28 12:02:07;;;;;;;3.87;1.30;;;;;;;24.25;35.49;99536.92;1612034;89;21056;-63
2023/07/28 12:04:39;;;;;;;2.52;1.22;;;;;;;24.24;36.14;99536.66;1652674;87;21034;-65
2023/07/28 12:07:14;;;;;;;2.40;1.50;;;;;;;24.22;36.28;99542.31;1652808;87;21066;-64
2023/07/28 12:09:51;;;;;;;2.98;1.40;;;;;;;24.13;36.82;99540.80;1611820;88;21074;-62
2023/07/28 12:12:23;;;;;;;1.75;1.07;;;;;;;24.12;37.17;99543.34;1610815;88;21093;-66
2023/07/28 12:14:54;;;;;;;3.33;1.02;;;;;;;24.09;36.73;99545.35;1652846;87;21110;-62
2023/07/28 12:17:27;;;;;;;3.55;1.87;;;;;;;24.08;37.88;99536.70;1611827;88;21046;-69
2023/07/28 12:20:15;;;;;;;2.50;1.50;;;;;;;24.10;37.81;99530.79;1609297;89;21112;-61
2023/07/28 12:22:41;;;;;;;1.55;1.12;;;;;;;24.14;37.74;99532.66;1611517;88;21451;-65
2023/07/28 12:25:11;;;;;;;6.28;3.27;;;;;;;24.20;38.10;99532.00;1594068;89;21090;-65
2023/07/28 12:27:40;;;;;;;3.10;1.30;;;;;;;24.32;37.99;99535.15;1652796;86;21066;-64
2023/07/28 12:30:10;;;;;;;2.08;1.20;;;;;;;24.41;37.81;99539.46;1608879;88;21086;-64
2023/07/28 12:32:43;;;;;;;4.05;1.15;;;;;;;24.47;37.28;99522.81;1609794;88;21506;-65
2023/07/28 12:35:14;;;;;;;2.65;1.25;;;;;;;24.40;37.84;99529.41;1606559;88;21106;-66
2023/07/28 12:37:43;;;;;;;3.72;1.45;;;;;;;24.42;37.70;99523.75;1603131;89;21102;-65
2023/07/28 12:40:14;;;;;;;2.80;1.12;;;;;;;24.45;37.79;99526.50;1603150;89;21086;-63
2023/07/28 12:42:47;;;;;;;2.42;1.02;;;;;;;24.47;38.23;99518.05;1603008;89;21107;-63
2023/07/28 12:45:18;;;;;;;3.60;1.17;;;;;;;24.52;38.35;99536.14;1603160;88;21130;-65
2023/07/28 12:47:49;;;;;;;2.77;1.07;;;;;;;24.56;37.90;99533.55;1603166;88;21111;-65
2023/07/28 12:50:23;;;;;;;2.55;0.90;;;;;;;24.56;36.91;99530.18;1602863;89;21055;-65
2023/07/28 12:52:52;;;;;;;9.43;1.47;;;;;;;24.54;37.40;99532.46;1603241;89;21184;-62
2023/07/28 12:55:23;;;;;;;3.55;1.25;;;;;;;24.54;37.19;99533.86;1602960;88;21545;-64
2023/07/28 12:57:53;;;;;;;3.95;1.70;;;;;;;24.51;37.43;99540.09;1603011;88;21058;-65
2023/07/28 13:00:22;;;;;;;2.45;1.32;;;;;;;24.53;38.14;99536.41;1603008;89;21075;-64
2023/07/28 13:02:52;;;;;;;2.62;1.05;;;;;;;24.54;37.58;99533.86;1602823;88;21118;-66
2023/07/28 13:05:21;;;;;;;4.90;1.15;;;;;;;24.56;37.69;99546.16;1603155;88;21138;-64
2023/07/28 13:07:50;;;;;;;6.10;1.80;;;;;;;24.60;37.20;99545.22;1603070;89;21109;-64
2023/07/28 13:10:21;;;;;;;4.25;2.20;;;;;;;24.63;36.92;99545.17;1603008;88;21567;-63
2023/07/28 13:12:54;;;;;;;2.75;1.35;;;;;;;24.58;36.93;99551.70;1603005;89;21090;-65
2023/07/28 13:15:29;;;;;;;2.70;1.10;;;;;;;24.48;36.56;99544.91;1602975;89;21122;-62
2023/07/28 13:17:59;;;;;;;5.95;3.50;;;;;;;24.30;37.05;99559.26;1603024;88;21070;-63
2023/07/28 13:20:28;;;;;;;1.25;1.15;;;;;;;24.25;37.76;99553.73;1603278;89;21103;-63
2023/07/28 13:22:59;;;;;;;2.40;1.20;;;;;;;24.25;37.61;99566.33;1579836;89;22078;-64
2023/07/28 13:25:28;;;;;;;3.27;1.70;;;;;;;24.26;37.02;99560.16;1602984;89;21066;-64
2023/07/28 13:27:56;;;;;;;3.72;1.20;;;;;;;24.23;36.36;99558.80;1602908;88;21490;-65
2023/07/28 13:30:26;;;;;;;2.12;1.10;;;;;;;24.23;36.53;99570.57;1598664;88;21166;-64
2023/07/28 13:32:56;;;;;;;5.85;1.22;;;;;;;24.16;36.47;99561.17;1591872;90;21102;-63
2023/07/28 13:35:26;;;;;;;2.65;1.30;;;;;;;24.08;36.69;99565.25;1591899;90;21078;-66
2023/07/28 13:37:55;;;;;;;1.42;1.10;;;;;;;23.99;37.05;99562.30;1592041;90;21111;-64
2023/07/28 13:40:24;;;;;;;3.67;1.02;;;;;;;23.95;37.26;99562.65;1591968;90;21142;-64
2023/07/28 13:42:55;;;;;;;2.10;1.25;;;;;;;23.92;37.61;99561.86;1591810;90;21143;-67
2023/07/28 13:45:24;;;;;;;2.47;1.07;;;;;;;23.95;37.82;99571.05;1591980;90;21075;-64
2023/07/28 13:47:53;;;;;;;3.77;1.22;;;;;;;23.99;37.91;99567.89;1591881;90;21071;-63
2023/07/28 13:50:22;;;;;;;5.28;1.30;;;;;;;23.99;37.95;99574.89;1592328;90;21095;-63
2023/07/28 13:52:53;;;;;;;2.65;1.17;;;;;;;24.00;37.64;99573.19;1590253;90;21255;-62
2023/07/28 13:55:23;;;;;;;3.42;2.60;;;;;;;24.02;37.83;99563.08;1592093;90;21494;-63
2023/07/28 13:57:53;;;;;;;5.55;1.42;;;;;;;24.06;37.75;99569.76;1589645;90;21090;-64
2023/07/28 14:00:22;;;;;;;2.58;1.30;;;;;;;24.11;37.88;99564.64;1592073;90;21106;-64
2023/07/28 14:02:50;;;;;;;2.42;0.95;;;;;;;24.17;37.28;99563.41;1600813;89;21150;-64
2023/07/28 14:05:20;;;;;;;2.40;0.90;;;;;;;24.22;36.94;99564.14;1601024;88;21493;-64
2023/07/28 14:07:48;;;;;;;5.08;1.30;;;;;;;24.24;36.45;99566.63;1601175;88;21203;-65
2023/07/28 14:10:17;;;;;;;1.65;1.10;;;;;;;24.22;36.37;99569.73;1601152;88;21125;-66
2023/07/28 14:12:46;;;;;;;1.80;0.98;;;;;;;24.18;36.45;99567.30;1587453;90;21095;-64
2023/07/28 14:15:16;;;;;;;1.37;0.95;;;;;;;24.16;36.29;99565.38;1600870;90;21105;-65
2023/07/28 14:17:45;;;;;;;2.37;1.62;;;;;;;24.15;35.79;99565.69;1600859;90;21111;-64
2023/07/28 14:20:15;;;;;;;2.25;0.93;;;;;;;24.12;36.04;99565.73;1601075;90;21094;-63
2023/07/28 14:22:50;;;;;;;3.40;1.30;;;;;;;24.11;36.24;99566.87;1601065;89;21122;-63
2023/07/28 14:25:21;;;;;;;1.85;1.30;;;;;;;24.10;35.91;99562.41;1600985;90;21095;-65
2023/07/28 14:27:49;;;;;;;2.52;1.00;;;;;;;24.12;35.88;99564.33;1574880;90;21071;-63
2023/07/28 14:30:18;;;;;;;1.47;1.05;;;;;;;24.18;36.24;99560.30;1600978;89;21087;-64
2023/07/28 14:32:47;;;;;;;2.52;1.20;;;;;;;24.24;36.50;99554.86;1600604;90;21098;-65
2023/07/28 14:35:16;;;;;;;2.90;0.98;;;;;;;24.27;36.60;99555.68;1574695;90;21062;-63
2023/07/28 14:37:45;;;;;;;3.60;1.20;;;;;;;24.33;36.70;99558.64;1600537;90;21074;-63
2023/07/28 14:40:13;;;;;;;2.05;1.17;;;;;;;24.36;36.25;99555.79;1600526;90;21784;-63
2023/07/28 14:42:42;;;;;;;2.22;1.30;;;;;;;24.42;35.87;99567.72;1564003;90;21154;-64
2023/07/28 14:45:12;;;;;;;5.58;1.30;;;;;;;24.44;36.05;99558.45;1600604;90;21161;-63
2023/07/28 14:47:41;;;;;;;3.87;1.27;;;;;;;24.52;36.08;99559.13;1600783;90;21093;-65
2023/07/28 14:50:11;;;;;;;3.37;1.00;;;;;;;24.59;36.04;99550.56;1600835;90;21114;-64
2023/07/28 14:52:40;;;;;;;11.43;4.05;;;;;;;24.63;35.81;99553.58;1600479;90;21130;-63
2023/07/28 14:55:09;;;;;;;3.42;2.27;;;;;;;24.73;36.09;99563.20;1583189;88;21037;-63
2023/07/28 14:57:42;;;;;;;2.40;1.37;;;;;;;24.83;35.62;99553.18;1601534;89;21067;-62
2023/07/28 15:00:12;;;;;;;3.75;1.40;;;;;;;24.91;35.43;99553.84;1613843;88;21603;-63
2023/07/28 15:02:44;;;;;;;1.70;1.00;;;;;;;24.95;34.53;99556.28;1625007;88;21050;-62
2023/07/28 15:05:14;;;;;;;3.98;1.30;;;;;;;24.87;34.03;99559.81;1600834;89;21126;-66
2023/07/28 15:07:43;;;;;;;3.00;1.57;;;;;;;24.77;34.30;99561.44;1617193;88;21066;-64
2023/07/28 15:10:12;;;;;;;1.67;1.17;;;;;;;24.67;34.12;99563.02;1631949;88;21065;-64
2023/07/28 15:12:41;;;;;;;1.98;0.98;;;;;;;24.61;34.65;99560.89;1619053;88;21133;-64
2023/07/28 15:15:11;;;;;;;3.90;1.47;;;;;;;24.60;34.69;99551.39;1639067;85;21086;-64
2023/07/28 15:17:40;;;;;;;3.75;1.40;;;;;;;24.58;34.73;99550.30;1676713;84;21079;-63
2023/07/28 15:20:10;;;;;;;2.42;1.17;;;;;;;24.58;35.06;99550.87;1676645;85;21064;-63
2023/07/28 15:22:40;;;;;;;3.75;1.32;;;;;;;24.60;35.48;99555.59;1676618;84;21076;-64
2023/07/28 15:25:09;;;;;;;2.42;1.35;;;;;;;24.63;35.29;99553.58;1657327;85;21099;-66
2023/07/28 15:27:41;;;;;;;2.50;1.00;;;;;;;24.65;35.57;99552.69;1676569;85;21479;-66
2023/07/28 15:30:10;;;;;;;4.37;1.17;;;;;;;24.64;35.07;99552.44;1657674;85;21527;-64
2023/07/28 15:32:39;;;;;;;8.35;2.40;;;;;;;24.58;35.65;99546.67;1610617;88;21081;-63
2023/07/28 15:35:10;;;;;;;2.77;1.60;;;;;;;24.57;35.79;99545.02;1650612;87;21755;-63
2023/07/28 15:37:41;;;;;;;1.47;1.10;;;;;;;24.58;36.01;99550.87;1650787;86;21055;-64
2023/07/28 15:40:11;;;;;;;3.08;1.60;;;;;;;24.61;35.84;99558.66;1650875;87;21126;-63
2023/07/28 15:42:39;;;;;;;3.60;1.20;;;;;;;24.63;36.01;99560.58;1650789;86;21086;-64
2023/07/28 15:45:10;;;;;;;2.30;1.10;;;;;;;24.66;35.89;99556.58;1650818;87;21504;-63
2023/07/28 15:47:42;;;;;;;4.87;1.47;;;;;;;24.63;36.20;99554.41;1650910;87;21458;-63
2023/07/28 15:50:11;;;;;;;3.02;1.30;;;;;;;24.60;36.40;99558.40;1650878;86;21538;-63
2023/07/28 15:52:39;;;;;;;3.05;1.20;;;;;;;24.59;36.78;99558.14;1650749;86;21054;-63
2023/07/28 15:55:08;;;;;;;4.45;1.15;;;;;;;24.58;37.12;99562.08;1650638;87;21106;-64
2023/07/28 15:57:37;;;;;;;1.95;1.00;;;;;;;24.56;36.65;99563.80;1637615;87;21587;-63
2023/07/28 16:00:09;;;;;;;3.17;1.52;;;;;;;24.51;36.41;99557.46;1654649;86;21525;-63
2023/07/28 16:02:41;;;;;;;2.35;1.30;;;;;;;24.48;36.66;99564.52;1660688;85;21060;-65
2023/07/28 16:05:11;;;;;;;2.70;1.60;;;;;;;24.47;36.87;99562.02;1660765;86;21076;-64
2023/07/28 16:07:40;;;;;;;2.15;1.20;;;;;;;24.44;36.67;99569.64;1660778;85;21036;-64
2023/07/28 16:10:10;;;;;;;3.60;1.20;;;;;;;24.40;36.86;99566.64;1661284;85;21104;-65
2023/07/28 16:12:40;;;;;;;4.10;1.10;;;;;;;24.38;36.48;99569.48;1660879;85;21029;-65
2023/07/28 16:15:09;;;;;;;3.75;1.37;;;;;;;24.33;36.69;99570.41;1660801;85;21549;-64
2023/07/28 16:17:39;;;;;;;2.22;1.10;;;;;;;24.31;36.95;99568.48;1661029;85;21052;-65
2023/07/28 16:20:11;;;;;;;3.95;1.95;;;;;;;24.31;36.63;99575.48;1661019;85;21036;-64
2023/07/28 16:22:39;;;;;;;2.08;1.20;;;;;;;24.25;36.88;99573.89;1661174;86;21072;-64
2023/07/28 16:25:10;;;;;;;2.08;1.20;;;;;;;24.23;37.31;99574.77;1630242;86;21574;-65
2023/07/28 16:27:40;;;;;;;2.87;1.15;;;;;;;24.20;37.18;99576.78;1660837;85;21072;-66
2023/07/28 16:30:11;;;;;;;4.25;1.35;;;;;;;24.17;37.75;99582.43;1661073;86;21484;-65
2023/07/28 16:32:42;;;;;;;3.65;1.02;;;;;;;24.14;36.80;99582.22;1659175;85;21085;-66
2023/07/28 16:35:11;;;;;;;4.10;1.20;;;;;;;24.11;36.94;99588.43;1658692;86;21088;-64
2023/07/28 16:37:40;;;;;;;3.80;1.30;;;;;;;24.07;37.11;99588.21;1658895;86;21044;-64
2023/07/28 16:40:10;;;;;;;3.12;1.20;;;;;;;24.07;37.40;99592.98;1658849;85;21061;-70
2023/07/28 16:42:39;;;;;;;3.85;1.42;;;;;;;24.05;37.55;99586.26;1658757;86;21488;-64
2023/07/28 16:45:10;;;;;;;3.12;1.40;;;;;;;24.03;37.42;99592.16;1658617;86;21049;-64
2023/07/28 16:47:38;;;;;;;2.98;1.30;;;;;;;24.00;37.47;99599.77;1658884;86;21111;-63
2023/07/28 16:50:08;;;;;;;2.55;1.22;;;;;;;23.96;37.71;99600.13;1659021;85;21092;-64
2023/07/28 16:52:37;;;;;;;2.67;1.17;;;;;;;23.93;37.81;99604.09;1659011;86;21037;-64
2023/07/28 16:55:07;;;;;;;2.87;1.07;;;;;;;23.91;37.52;99598.80;1658897;86;21080;-63
2023/07/28 16:57:37;;;;;;;2.60;1.32;;;;;;;23.85;37.04;99596.40;1658709;85;21084;-65
2023/07/28 17:00:08;;;;;;;2.98;1.15;;;;;;;23.80;37.41;99600.11;1659010;85;21130;-63
2023/07/28 17:02:37;;;;;;;4.80;1.30;;;;;;;23.76;37.49;99599.63;1659037;86;21080;-66
2023/07/28 17:05:07;;;;;;;2.45;1.17;;;;;;;23.74;38.09;99599.10;1633836;86;21493;-64
2023/07/28 17:07:39;;;;;;;3.72;1.50;;;;;;;23.67;38.77;99599.48;1658917;85;21093;-64
2023/07/28 17:10:09;;;;;;;5.35;1.50;;;;;;;23.55;39.02;99603.31;1658621;85;21076;-63
2023/07/28 17:12:38;;;;;;;2.92;1.30;;;;;;;23.44;39.84;99603.17;1658686;85;21057;-64
2023/07/28 17:15:08;;;;;;;3.17;1.35;;;;;;;23.34;40.06;99606.91;1658916;85;21081;-64
2023/07/28 17:17:37;;;;;;;10.48;1.67;;;;;;;23.24;40.85;99611.25;1659011;86;21648;-64
2023/07/28 17:20:07;;;;;;;4.97;1.30;;;;;;;23.15;41.36;99611.09;1658743;86;21508;-64
2023/07/28 17:22:36;;;;;;;3.27;1.57;;;;;;;23.04;41.53;99614.59;1658782;86;21549;-65
2023/07/28 17:25:07;;;;;;;6.42;1.95;;;;;;;22.93;41.53;99615.84;1658642;86;21072;-65
2023/07/28 17:27:36;;;;;;;3.72;1.98;;;;;;;22.86;41.28;99614.55;1658798;86;21055;-64
2023/07/28 17:30:07;;;;;;;3.00;1.40;;;;;;;22.83;41.31;99624.35;1658785;85;21045;-65
2023/07/28 17:32:38;;;;;;;2.77;1.30;;;;;;;22.80;42.39;99615.17;1658791;86;21100;-64
2023/07/28 17:35:09;;;;;;;2.37;1.32;;;;;;;22.70;42.89;99613.27;1658896;86;21041;-64
2023/07/28 17:37:38;;;;;;;2.75;1.82;;;;;;;22.66;43.28;99614.16;1659117;86;21092;-65
2023/07/28 17:40:09;;;;;;;5.42;1.60;;;;;;;22.58;43.47;99614.81;1659071;85;21048;-64
2023/07/28 17:42:38;;;;;;;2.80;1.47;;;;;;;22.50;43.90;99616.28;1658792;86;21096;-63
2023/07/28 17:45:08;;;;;;;3.98;1.40;;;;;;;22.37;44.34;99615.02;1658737;86;21476;-63
2023/07/28 17:47:39;;;;;;;2.12;1.30;;;;;;;22.24;44.79;99626.87;1659041;86;21060;-61
2023/07/28 17:50:11;;;;;;;4.70;1.67;;;;;;;22.13;45.23;99625.30;1658782;86;21021;-65
2023/07/28 17:52:40;;;;;;;3.37;1.92;;;;;;;21.99;45.63;99634.02;1634363;86;21029;-64
2023/07/28 17:55:10;;;;;;;2.92;1.60;;;;;;;21.87;46.09;99634.95;1658955;86;21052;-64
2023/07/28 17:57:40;;;;;;;2.20;1.30;;;;;;;21.76;46.32;99636.98;1658881;86;21468;-64
2023/07/28 18:00:11;;;;;;;3.72;1.50;;;;;;;21.68;46.55;99627.84;1658780;86;21511;-64
2023/07/28 18:02:40;;;;;;;4.85;1.57;;;;;;;21.59;46.65;99637.95;1633784;86;21542;-65
2023/07/28 18:05:09;;;;;;;3.62;1.30;;;;;;;21.47;46.97;99631.33;1658788;86;21044;-64
2023/07/28 18:07:39;;;;;;;1.35;1.10;;;;;;;21.36;47.48;99638.89;1658774;85;21486;-64
2023/07/28 18:10:10;;;;;;;3.08;1.40;;;;;;;21.24;47.96;99627.81;1659058;85;21053;-64
2023/07/28 18:12:39;;;;;;;4.47;1.40;;;;;;;21.13;48.49;99638.98;1658754;86;21610;-63
2023/07/28 18:15:10;;;;;;;4.87;1.40;;;;;;;21.02;48.70;99638.75;1658901;85;21037;-64
2023/07/28 18:17:40;;;;;;;1.82;1.22;;;;;;;20.94;49.35;99642.13;1658771;86;21115;-64
2023/07/28 18:20:11;;;;;;;4.65;1.80;;;;;;;20.87;50.03;99642.43;1658822;85;21021;-64
2023/07/28 18:22:41;;;;;;;6.40;1.57;;;;;;;20.84;50.25;99639.38;1658886;85;21088;-62
2023/07/28 18:25:11;;;;;;;8.48;1.60;;;;;;;20.78;50.31;99639.92;1658761;86;21028;-63
2023/07/28 18:27:41;;;;;;;3.87;1.60;;;;;;;20.75;50.10;99636.31;1659009;86;21052;-64
2023/07/28 18:30:12;;;;;;;2.87;1.40;;;;;;;20.72;50.05;99634.66;1658764;86;21052;-62
2023/07/28 18:32:43;;;;;;;3.05;1.67;;;;;;;20.66;50.46;99640.80;1656631;83;21495;-64
2023/07/28 18:35:12;;;;;;;3.83;1.65;;;;;;;20.60;50.79;99640.53;1654202;85;21084;-64
2023/07/28 18:37:41;;;;;;;4.78;1.55;;;;;;;20.51;51.06;99642.23;1653934;85;21108;-65
2023/07/28 18:40:11;;;;;;;2.75;1.40;;;;;;;20.43;51.12;99645.03;1654098;86;21049;-64
2023/07/28 18:42:41;;;;;;;2.10;1.42;;;;;;;20.37;51.22;99641.11;1654134;85;21080;-63
2023/07/28 18:45:12;;;;;;;3.30;1.60;;;;;;;20.30;51.36;99646.96;1653980;85;21104;-63
2023/07/28 18:47:43;;;;;;;16.37;2.40;;;;;;;20.24;51.53;99641.13;1653988;87;21108;-64
2023/07/28 18:50:12;;;;;;;4.65;2.27;;;;;;;20.18;52.11;99642.25;1653921;85;21563;-64
2023/07/28 18:52:43;;;;;;;3.85;1.70;;;;;;;20.10;52.62;99642.22;1654205;87;21509;-64
2023/07/28 18:55:14;;;;;;;3.33;1.80;;;;;;;20.02;52.89;99645.56;1627278;87;21096;-64
2023/07/28 18:57:46;;;;;;;4.78;1.70;;;;;;;19.96;53.09;99646.67;1654164;87;21077;-63
2023/07/28 19:00:19;;;;;;;4.85;1.70;;;;;;;19.91;53.40;99645.28;1654261;85;21088;-64
2023/07/28 19:02:54;;;;;;;5.10;2.20;;;;;;;19.86;53.72;99648.89;1654265;85;21044;-64
2023/07/28 19:05:22;;;;;;;11.10;2.08;;;;;;;19.84;54.13;99645.56;1653852;85;21062;-64
2023/07/28 19:07:52;;;;;;;4.83;2.02;;;;;;;19.79;54.34;99650.28;1627736;87;21093;-63
2023/07/28 19:10:21;;;;;;;8.13;2.83;;;;;;;19.77;54.47;99642.77;1653978;85;21048;-64
2023/07/28 19:12:52;;;;;;;5.80;2.30;;;;;;;19.75;55.07;99645.83;1654020;86;21139;-63
2023/07/28 19:15:21;;;;;;;6.20;2.25;;;;;;;19.74;55.35;99644.16;1654276;87;21502;-63
2023/07/28 19:17:52;;;;;;;4.80;2.50;;;;;;;19.69;55.37;99648.33;1651582;87;21092;-63
2023/07/28 19:20:21;;;;;;;5.62;2.33;;;;;;;19.64;55.16;99646.92;1654079;87;21110;-63
2023/07/28 19:22:51;;;;;;;5.47;2.83;;;;;;;19.62;55.29;99644.98;1654012;87;21056;-63
2023/07/28 19:25:23;;;;;;;5.85;2.70;;;;;;;19.63;55.60;99648.04;1654041;86;21053;-64
2023/07/28 19:27:53;;;;;;;6.37;2.40;;;;;;;19.61;55.61;99648.88;1653977;85;21500;-63
2023/07/28 19:30:23;;;;;;;11.80;2.85;;;;;;;19.60;55.66;99641.64;1635864;86;21085;-64
2023/07/28 19:32:52;;;;;;;4.70;2.67;;;;;;;19.59;56.11;99643.59;1653981;86;21573;-64
2023/07/28 19:35:24;;;;;;;6.20;2.50;;;;;;;19.58;56.54;99639.14;1653934;87;21044;-63
2023/07/28 19:37:55;;;;;;;6.15;2.85;;;;;;;19.57;56.87;99641.64;1654229;85;21464;-64
2023/07/28 19:40:26;;;;;;;5.25;3.00;;;;;;;19.54;57.21;99639.41;1654182;87;21056;-64
2023/07/28 19:42:56;;;;;;;20.35;5.10;;;;;;;19.46;57.63;99632.11;1654278;86;21134;-63
2023/07/28 19:45:27;;;;;;;16.17;5.85;;;;;;;19.38;58.29;99645.98;1654403;87;21497;-63
2023/07/28 19:47:59;;;;;;;7.05;3.30;;;;;;;19.33;58.87;99637.08;1627770;87;21085;-64
2023/07/28 19:50:30;;;;;;;6.92;2.90;;;;;;;19.30;58.94;99648.73;1653966;85;21057;-64
2023/07/28 19:53:03;;;;;;;7.95;3.37;;;;;;;19.27;59.12;99642.34;1652120;86;21503;-65